createdAt,value
2018-04-26T00:00:22.262Z,13.78
2018-04-26T00:01:36.092Z,13.69
2018-04-26T00:02:50.738Z,13.65
2018-04-26T00:04:04.999Z,13.61
2018-04-26T00:05:19.447Z,13.59
2018-04-26T00:06:33.867Z,13.56
2018-04-26T00:07:47.538Z,13.53
2018-04-26T00:09:01.783Z,13.52
2018-04-26T00:10:16.189Z,13.51
2018-04-26T00:11:30.747Z,13.45
2018-04-26T00:12:45.108Z,13.42
2018-04-26T00:13:59.378Z,13.37
2018-04-26T00:15:13.628Z,13.34
2018-04-26T00:16:28.107Z,13.33
2018-04-26T00:17:42.546Z,13.29
2018-04-26T00:19:01.600Z,13.27
2018-04-26T00:20:15.735Z,13.27
2018-04-26T00:21:29.966Z,13.26
2018-04-26T00:22:44.160Z,13.25
2018-04-26T00:23:58.763Z,13.27
2018-04-26T00:25:13.475Z,13.26
2018-04-26T00:26:27.474Z,13.24
2018-04-26T00:27:41.128Z,13.22
2018-04-26T00:28:55.675Z,13.22
2018-04-26T00:30:10.089Z,13.22
2018-04-26T00:31:24.565Z,13.23
2018-04-26T00:32:38.818Z,13.23
2018-04-26T00:33:53.081Z,13.23
2018-04-26T00:35:06.970Z,13.23
2018-04-26T00:36:21.736Z,13.27
2018-04-26T00:37:35.804Z,13.25
2018-04-26T00:38:50.295Z,13.25
2018-04-26T00:40:04.944Z,13.26
2018-04-26T00:41:18.969Z,13.27
2018-04-26T00:42:33.591Z,13.27
2018-04-26T00:43:47.912Z,13.27
2018-04-26T00:45:02.584Z,13.26
2018-04-26T00:46:16.618Z,13.24
2018-04-26T00:47:30.851Z,13.21
2018-04-26T00:48:44.688Z,13.19
2018-04-26T00:49:58.360Z,13.13
2018-04-26T00:51:12.130Z,13.09
2018-04-26T00:52:26.275Z,13.05
2018-04-26T00:53:49.667Z,13.03
2018-04-26T00:55:03.360Z,13
2018-04-26T00:56:17.415Z,12.98
2018-04-26T00:57:31.913Z,12.9
2018-04-26T00:58:46.170Z,12.84
2018-04-26T01:00:00.418Z,12.81
2018-04-26T01:01:14.676Z,12.74
2018-04-26T01:02:28.540Z,12.71
2018-04-26T01:03:43.280Z,12.67
2018-04-26T01:04:57.692Z,12.66
2018-04-26T01:06:12.473Z,12.63
2018-04-26T01:07:26.218Z,12.61
2018-04-26T01:08:40.586Z,12.61
2018-04-26T01:09:54.509Z,12.6
2018-04-26T01:11:08.551Z,12.59
2018-04-26T01:12:22.969Z,12.59
2018-04-26T01:13:37.321Z,12.6
2018-04-26T01:14:52.229Z,12.61
2018-04-26T01:16:06.043Z,12.61
2018-04-26T01:17:20.520Z,12.61
2018-04-26T01:18:35.045Z,12.59
2018-04-26T01:19:48.747Z,12.6
2018-04-26T01:21:03.534Z,12.59
2018-04-26T01:22:17.952Z,12.58
2018-04-26T01:23:32.620Z,12.57
2018-04-26T01:24:47.046Z,12.6
2018-04-26T01:26:01.538Z,12.61
2018-04-26T01:27:15.485Z,12.6
2018-04-26T01:28:30.203Z,12.6
2018-04-26T01:29:44.589Z,12.57
2018-04-26T01:30:58.834Z,12.53
2018-04-26T01:32:13.198Z,12.51
2018-04-26T01:33:27.284Z,12.49
2018-04-26T01:34:41.739Z,12.48
2018-04-26T01:35:56.012Z,12.46
2018-04-26T01:37:10.857Z,12.46
2018-04-26T01:38:24.624Z,12.47
2018-04-26T01:39:38.536Z,12.48
2018-04-26T01:40:52.859Z,12.46
2018-04-26T01:42:07.480Z,12.47
2018-04-26T01:43:21.517Z,12.47
2018-04-26T01:44:35.227Z,12.47
2018-04-26T01:45:48.777Z,12.47
2018-04-26T01:47:02.665Z,12.48
2018-04-26T01:48:16.658Z,12.48
2018-04-26T01:49:30.981Z,12.49
2018-04-26T01:50:45.246Z,12.46
2018-04-26T01:51:58.663Z,12.44
2018-04-26T01:53:12.681Z,12.43
2018-04-26T01:54:26.877Z,12.43
2018-04-26T01:55:40.525Z,12.43
2018-04-26T01:56:54.660Z,12.4
2018-04-26T01:58:08.914Z,12.38
2018-04-26T01:59:23.080Z,12.37
2018-04-26T02:00:37.705Z,12.36
2018-04-26T02:01:52.392Z,12.34
2018-04-26T02:03:06.701Z,12.34
2018-04-26T02:04:20.442Z,12.33
2018-04-26T02:05:35.212Z,12.31
2018-04-26T02:06:49.120Z,12.31
2018-04-26T02:08:03.405Z,12.27
2018-04-26T02:09:17.595Z,12.21
2018-04-26T02:10:32.117Z,12.14
2018-04-26T02:11:46.264Z,12.1
2018-04-26T02:13:00.281Z,12.07
2018-04-26T02:14:14.752Z,12.05
2018-04-26T02:15:29.166Z,12.06
2018-04-26T02:16:43.094Z,12.02
2018-04-26T02:17:57.373Z,12
2018-04-26T02:19:11.890Z,11.99
2018-04-26T02:20:26.031Z,11.95
2018-04-26T02:21:40.179Z,11.96
2018-04-26T02:22:53.949Z,11.95
2018-04-26T02:24:08.343Z,11.92
2018-04-26T02:25:23.040Z,11.89
2018-04-26T02:26:37.961Z,11.88
2018-04-26T02:27:52.026Z,11.88
2018-04-26T02:29:05.457Z,11.85
2018-04-26T02:30:19.777Z,11.83
2018-04-26T02:31:33.359Z,11.8
2018-04-26T02:32:47.554Z,11.79
2018-04-26T02:34:01.517Z,11.79
2018-04-26T02:35:15.574Z,11.79
2018-04-26T02:36:29.414Z,11.76
2018-04-26T02:37:43.445Z,11.72
2018-04-26T02:38:57.560Z,11.66
2018-04-26T02:40:11.565Z,11.57
2018-04-26T02:41:25.215Z,11.53
2018-04-26T02:42:38.731Z,11.51
2018-04-26T02:43:52.417Z,11.48
2018-04-26T02:45:06.458Z,11.44
2018-04-26T02:46:20.625Z,11.38
2018-04-26T02:47:35.142Z,11.34
2018-04-26T02:48:49.770Z,11.31
2018-04-26T02:50:04.045Z,11.31
2018-04-26T02:51:18.701Z,11.3
2018-04-26T02:52:32.727Z,11.3
2018-04-26T02:53:46.832Z,11.32
2018-04-26T02:55:01.109Z,11.3
2018-04-26T02:56:15.285Z,11.26
2018-04-26T02:57:30.317Z,11.25
2018-04-26T02:58:43.982Z,11.24
2018-04-26T02:59:57.777Z,11.22
2018-04-26T03:01:12.023Z,11.2
2018-04-26T03:02:26.058Z,11.16
2018-04-26T03:03:40.479Z,11.11
2018-04-26T03:04:55.003Z,11.06
2018-04-26T03:06:09.371Z,11.01
2018-04-26T03:07:23.233Z,10.96
2018-04-26T03:08:37.286Z,10.92
2018-04-26T03:09:51.366Z,10.89
2018-04-26T03:11:05.406Z,10.84
2018-04-26T03:12:19.904Z,10.77
2018-04-26T03:13:33.690Z,10.7
2018-04-26T03:14:48.439Z,10.65
2018-04-26T03:16:02.624Z,10.6
2018-04-26T03:17:16.525Z,10.58
2018-04-26T03:18:30.830Z,10.57
2018-04-26T03:19:45.100Z,10.56
2018-04-26T03:20:58.774Z,10.52
2018-04-26T03:22:13.553Z,10.46
2018-04-26T03:23:28.128Z,10.41
2018-04-26T03:24:42.580Z,10.36
2018-04-26T03:25:56.587Z,10.3
2018-04-26T03:27:10.830Z,10.24
2018-04-26T03:28:25.052Z,10.2
2018-04-26T03:29:39.169Z,10.16
2018-04-26T03:30:53.590Z,10.12
2018-04-26T03:32:08.305Z,10.08
2018-04-26T03:33:22.711Z,10.05
2018-04-26T03:34:37.459Z,10.01
2018-04-26T03:35:51.621Z,9.99
2018-04-26T03:37:06.032Z,9.96
2018-04-26T03:38:20.312Z,9.92
2018-04-26T03:39:34.749Z,9.88
2018-04-26T03:40:49.633Z,9.84
2018-04-26T03:42:03.881Z,9.79
2018-04-26T03:43:18.533Z,9.76
2018-04-26T03:44:33.083Z,9.73
2018-04-26T03:45:47.008Z,9.69
2018-04-26T03:47:01.788Z,9.69
2018-04-26T03:48:16.184Z,9.67
2018-04-26T03:49:30.491Z,9.67
2018-04-26T03:50:44.240Z,9.65
2018-04-26T03:51:57.778Z,9.64
2018-04-26T03:53:11.999Z,9.62
2018-04-26T03:54:25.298Z,9.62
2018-04-26T03:55:39.177Z,9.61
2018-04-26T03:56:53.637Z,9.6
2018-04-26T03:58:08.044Z,9.61
2018-04-26T03:59:22.403Z,9.63
2018-04-26T04:00:37.031Z,9.63
2018-04-26T04:01:51.036Z,9.64
2018-04-26T04:03:05.509Z,9.64
2018-04-26T04:04:19.773Z,9.65
2018-04-26T04:05:34.376Z,9.67
2018-04-26T04:06:48.863Z,9.66
2018-04-26T04:08:03.285Z,9.66
2018-04-26T04:09:17.551Z,9.66
2018-04-26T04:10:31.004Z,9.64
2018-04-26T04:11:45.604Z,9.66
2018-04-26T04:12:59.522Z,9.66
2018-04-26T04:14:14.070Z,9.64
2018-04-26T04:15:28.021Z,9.62
2018-04-26T04:16:42.046Z,9.6
2018-04-26T04:17:56.011Z,9.62
2018-04-26T04:19:10.033Z,9.6
2018-04-26T04:20:23.983Z,9.65
2018-04-26T04:21:38.003Z,9.66
2018-04-26T04:22:51.899Z,9.69
2018-04-26T04:24:06.202Z,9.73
2018-04-26T04:25:20.152Z,9.78
2018-04-26T04:26:34.770Z,9.85
2018-04-26T04:27:48.694Z,9.92
2018-04-26T04:29:03.046Z,9.96
2018-04-26T04:30:16.764Z,9.95
2018-04-26T04:31:30.567Z,10.01
2018-04-26T04:32:44.541Z,10.07
2018-04-26T04:33:58.599Z,10.13
2018-04-26T04:35:12.631Z,10.2
2018-04-26T04:36:27.513Z,10.27
2018-04-26T04:37:41.925Z,10.34
2018-04-26T04:38:56.524Z,10.4
2018-04-26T04:40:10.438Z,10.46
2018-04-26T04:41:24.462Z,10.52
2018-04-26T04:42:39.083Z,10.56
2018-04-26T04:43:53.396Z,10.62
2018-04-26T04:45:06.947Z,10.69
2018-04-26T04:46:21.727Z,10.79
2018-04-26T04:47:35.982Z,11.01
2018-04-26T04:48:50.518Z,11.19
2018-04-26T04:50:04.202Z,11.14
2018-04-26T04:51:18.249Z,11.33
2018-04-26T04:52:32.538Z,12.3
2018-04-26T04:53:47.207Z,13.17
2018-04-26T04:55:01.365Z,13.85
2018-04-26T04:56:15.863Z,13.8
2018-04-26T04:57:30.496Z,14.55
2018-04-26T04:58:44.628Z,15.26
2018-04-26T04:59:57.822Z,15.77
2018-04-26T05:01:12.427Z,15.46
2018-04-26T05:02:26.382Z,15
2018-04-26T05:03:40.661Z,14.5
2018-04-26T05:04:55.082Z,14.18
2018-04-26T05:06:09.358Z,13.92
2018-04-26T05:07:23.873Z,13.76
2018-04-26T05:08:37.220Z,13.68
2018-04-26T05:09:51.098Z,13.6
2018-04-26T05:11:06.571Z,13.52
2018-04-26T05:12:20.309Z,13.41
2018-04-26T05:13:34.841Z,13.32
2018-04-26T05:14:48.694Z,13.26
2018-04-26T05:16:03.201Z,13.25
2018-04-26T05:17:17.440Z,13.2
2018-04-26T05:18:31.534Z,13.23
2018-04-26T05:19:45.461Z,13.24
2018-04-26T05:20:59.324Z,13.26
2018-04-26T05:22:12.789Z,13.28
2018-04-26T05:23:27.094Z,13.3
2018-04-26T05:24:40.973Z,13.28
2018-04-26T05:25:55.044Z,13.29
2018-04-26T05:27:08.851Z,13.33
2018-04-26T05:28:23.446Z,13.34
2018-04-26T05:29:37.944Z,13.4
2018-04-26T05:30:52.124Z,13.49
2018-04-26T05:32:06.526Z,13.55
2018-04-26T05:33:20.461Z,13.56
2018-04-26T05:34:34.855Z,13.53
2018-04-26T05:35:48.927Z,13.49
2018-04-26T05:37:02.904Z,13.45
2018-04-26T05:38:17.424Z,13.39
2018-04-26T05:39:31.395Z,13.33
2018-04-26T05:40:45.360Z,13.25
2018-04-26T05:41:59.035Z,13.14
2018-04-26T05:43:13.425Z,13.04
2018-04-26T05:44:28.121Z,12.99
2018-04-26T05:45:42.469Z,12.94
2018-04-26T05:46:56.627Z,12.93
2018-04-26T05:48:11.369Z,12.9
2018-04-26T05:49:25.755Z,12.87
2018-04-26T05:50:40.343Z,12.87
2018-04-26T05:51:54.255Z,12.85
2018-04-26T05:53:08.780Z,12.83
2018-04-26T05:54:22.990Z,12.84
2018-04-26T05:55:37.457Z,12.87
2018-04-26T05:56:52.106Z,12.88
2018-04-26T05:58:06.830Z,12.9
2018-04-26T05:59:21.491Z,12.9
2018-04-26T06:00:35.749Z,12.93
2018-04-26T06:01:50.099Z,12.93
2018-04-26T06:03:04.734Z,12.94
2018-04-26T06:04:19.434Z,12.94
2018-04-26T06:05:33.959Z,12.93
2018-04-26T06:06:47.875Z,12.93
2018-04-26T06:08:02.416Z,12.91
2018-04-26T06:09:16.392Z,12.9
2018-04-26T06:10:30.907Z,12.86
2018-04-26T06:11:44.720Z,12.83
2018-04-26T06:12:58.552Z,12.81
2018-04-26T06:14:12.745Z,12.81
2018-04-26T06:15:36.160Z,12.83
2018-04-26T06:16:50.604Z,12.8
2018-04-26T06:18:05.170Z,12.83
2018-04-26T06:19:19.918Z,12.84
2018-04-26T06:20:34.198Z,12.83
2018-04-26T06:21:48.253Z,12.87
2018-04-26T06:23:02.312Z,12.88
2018-04-26T06:24:16.476Z,12.88
2018-04-26T06:25:30.431Z,12.94
2018-04-26T06:26:44.781Z,12.96
2018-04-26T06:27:59.295Z,13
2018-04-26T06:29:14.003Z,12.99
2018-04-26T06:30:28.537Z,12.99
2018-04-26T06:31:42.799Z,12.99
2018-04-26T06:32:57.063Z,13.01
2018-04-26T06:34:10.996Z,13.05
2018-04-26T06:35:25.122Z,13.12
2018-04-26T06:36:39.284Z,13.16
2018-04-26T06:37:54.113Z,13.18
2018-04-26T06:39:08.512Z,13.19
2018-04-26T06:40:22.788Z,13.18
2018-04-26T06:41:37.201Z,13.17
2018-04-26T06:42:51.728Z,13.16
2018-04-26T06:44:05.391Z,13.19
2018-04-26T06:45:19.556Z,13.22
2018-04-26T06:46:33.982Z,13.22
2018-04-26T06:47:48.663Z,13.26
2018-04-26T06:49:03.469Z,13.32
2018-04-26T06:50:17.708Z,13.39
2018-04-26T06:51:32.205Z,13.44
2018-04-26T06:52:46.485Z,13.45
2018-04-26T06:54:00.729Z,13.44
2018-04-26T06:55:14.757Z,13.4
2018-04-26T06:56:29.006Z,13.42
2018-04-26T06:57:43.051Z,13.42
2018-04-26T06:58:56.863Z,13.48
2018-04-26T07:00:11.237Z,13.51
2018-04-26T07:01:25.024Z,13.57
2018-04-26T07:02:38.823Z,13.61
2018-04-26T07:03:52.960Z,13.65
2018-04-26T07:05:07.477Z,13.7
2018-04-26T07:06:21.518Z,13.72
2018-04-26T07:07:35.551Z,13.76
2018-04-26T07:08:50.074Z,13.79
2018-04-26T07:10:03.847Z,13.8
2018-04-26T07:11:17.568Z,13.88
2018-04-26T07:12:31.823Z,13.93
2018-04-26T07:13:45.658Z,14
2018-04-26T07:15:00.126Z,14.12
2018-04-26T07:16:14.073Z,14.23
2018-04-26T07:17:27.858Z,14.37
2018-04-26T07:18:42.322Z,14.51
2018-04-26T07:19:56.407Z,14.63
2018-04-26T07:21:10.829Z,14.75
2018-04-26T07:22:24.608Z,14.82
2018-04-26T07:23:38.579Z,14.85
2018-04-26T07:24:52.642Z,14.93
2018-04-26T07:26:06.597Z,14.98
2018-04-26T07:27:20.624Z,14.97
2018-04-26T07:28:35.062Z,15.07
2018-04-26T07:29:49.265Z,15.17
2018-04-26T07:31:03.475Z,15.28
2018-04-26T07:32:17.780Z,15.39
2018-04-26T07:33:31.925Z,15.51
2018-04-26T07:34:46.630Z,15.71
2018-04-26T07:36:00.810Z,15.83
2018-04-26T07:37:15.182Z,15.96
2018-04-26T07:38:29.343Z,16.01
2018-04-26T07:39:43.629Z,16.06
2018-04-26T07:40:57.081Z,16.06
2018-04-26T07:42:11.371Z,16.18
2018-04-26T07:43:25.633Z,16.27
2018-04-26T07:44:40.018Z,16.37
2018-04-26T07:45:54.523Z,16.45
2018-04-26T07:47:08.815Z,16.51
2018-04-26T07:48:23.002Z,16.49
2018-04-26T07:49:37.080Z,16.42
2018-04-26T07:50:51.314Z,16.35
2018-04-26T07:52:05.367Z,16.4
2018-04-26T07:53:19.566Z,16.48
2018-04-26T07:54:33.851Z,16.5
2018-04-26T07:55:48.459Z,16.42
2018-04-26T07:57:02.561Z,16.3
2018-04-26T07:58:16.036Z,16.17
2018-04-26T07:59:40.132Z,16.14
2018-04-26T08:00:54.605Z,16.18
2018-04-26T08:02:09.418Z,16.14
2018-04-26T08:03:23.623Z,16.21
2018-04-26T08:04:38.150Z,16.21
2018-04-26T08:05:52.313Z,16.16
2018-04-26T08:07:06.330Z,16.1
2018-04-26T08:08:21.023Z,16.1
2018-04-26T08:09:34.834Z,16.08
2018-04-26T08:10:49.015Z,16.07
2018-04-26T08:12:03.712Z,16.08
2018-04-26T08:13:17.645Z,16.13
2018-04-26T08:14:32.207Z,16.26
2018-04-26T08:15:46.632Z,16.39
2018-04-26T08:17:00.951Z,16.5
2018-04-26T08:18:15.378Z,16.61
2018-04-26T08:19:29.688Z,16.67
2018-04-26T08:20:44.238Z,16.75
2018-04-26T08:21:58.819Z,16.84
2018-04-26T08:23:12.985Z,16.82
2018-04-26T08:24:26.774Z,16.83
2018-04-26T08:25:40.960Z,16.91
2018-04-26T08:26:55.371Z,16.97
2018-04-26T08:28:09.700Z,17.07
2018-04-26T08:29:24.230Z,17.16
2018-04-26T08:30:38.740Z,17.26
2018-04-26T08:31:53.049Z,17.35
2018-04-26T08:33:07.525Z,17.42
2018-04-26T08:34:21.797Z,17.41
2018-04-26T08:35:35.762Z,17.37
2018-04-26T08:36:49.838Z,17.36
2018-04-26T08:38:04.568Z,17.36
2018-04-26T08:39:19.430Z,17.35
2018-04-26T08:40:33.391Z,17.35
2018-04-26T08:41:47.449Z,17.39
2018-04-26T08:43:01.449Z,17.39
2018-04-26T08:44:15.522Z,17.35
2018-04-26T08:45:29.481Z,17.29
2018-04-26T08:46:43.834Z,17.31
2018-04-26T08:47:58.083Z,17.4
2018-04-26T08:49:12.431Z,17.46
2018-04-26T08:50:26.106Z,17.41
2018-04-26T08:51:41.306Z,17.31
2018-04-26T08:52:55.293Z,17.2
2018-04-26T08:54:09.352Z,17.1
2018-04-26T08:55:23.554Z,17.02
2018-04-26T08:56:37.328Z,16.92
2018-04-26T08:57:51.541Z,16.83
2018-04-26T08:59:05.649Z,16.69
2018-04-26T09:00:19.108Z,16.62
2018-04-26T09:08:34.740Z,16.98
2018-04-26T09:09:48.732Z,17.05
2018-04-26T09:11:02.294Z,17.16
2018-04-26T09:12:16.685Z,17.28
2018-04-26T09:13:31.168Z,17.4
2018-04-26T09:14:45.373Z,17.52
2018-04-26T09:16:00.119Z,17.62
2018-04-26T09:17:14.619Z,17.58
2018-04-26T09:18:28.542Z,17.6
2018-04-26T09:19:42.450Z,17.59
2018-04-26T09:20:56.707Z,17.59
2018-04-26T09:22:11.171Z,17.64
2018-04-26T09:23:25.197Z,17.61
2018-04-26T09:24:39.867Z,17.56
2018-04-26T09:25:54.410Z,17.54
2018-04-26T09:27:08.438Z,17.46
2018-04-26T09:28:22.784Z,17.44
2018-04-26T09:29:36.698Z,17.48
2018-04-26T09:30:51.463Z,17.47
2018-04-26T09:32:05.460Z,17.48
2018-04-26T09:33:19.718Z,17.47
2018-04-26T09:34:34.195Z,17.47
2018-04-26T09:35:48.032Z,17.45
2018-04-26T09:37:02.223Z,17.45
2018-04-26T09:38:16.531Z,17.42
2018-04-26T09:39:30.148Z,17.43
2018-04-26T09:40:45.321Z,17.53
2018-04-26T09:41:59.040Z,17.55
2018-04-26T09:43:13.253Z,17.47
2018-04-26T09:44:27.521Z,17.51
2018-04-26T09:45:41.987Z,17.5
2018-04-26T09:46:56.218Z,17.55
2018-04-26T09:48:10.281Z,17.58
2018-04-26T09:49:24.734Z,17.61
2018-04-26T09:50:39.671Z,17.7
2018-04-26T09:51:53.870Z,17.72
2018-04-26T09:53:08.230Z,17.73
2018-04-26T09:54:21.956Z,17.69
2018-04-26T09:55:36.464Z,17.72
2018-04-26T09:56:50.681Z,17.66
2018-04-26T09:58:04.492Z,17.64
2018-04-26T10:03:57.416Z,17.94
2018-04-26T10:05:15.293Z,17.99
2018-04-26T10:06:30.411Z,17.99
2018-04-26T10:07:45.022Z,18.05
2018-04-26T10:09:00.357Z,18
2018-04-26T10:10:15.941Z,17.95
2018-04-26T10:11:30.801Z,17.92
2018-04-26T10:12:46.471Z,17.92
2018-04-26T10:14:01.903Z,18.01
2018-04-26T10:15:16.930Z,18.12
2018-04-26T10:16:31.256Z,18.19
2018-04-26T10:17:46.677Z,18.27
2018-04-26T10:19:01.588Z,18.37
2018-04-26T10:20:16.853Z,18.43
2018-04-26T10:21:31.287Z,18.47
2018-04-26T10:22:45.852Z,18.53
2018-04-26T10:24:00.427Z,18.57
2018-04-26T10:25:15.942Z,18.54
2018-04-26T10:26:30.865Z,18.57
2018-04-26T10:27:45.480Z,18.69
2018-04-26T10:29:00.121Z,18.7
2018-04-26T10:30:14.881Z,18.77
2018-04-26T10:31:30.543Z,18.81
2018-04-26T10:32:45.734Z,18.83
2018-04-26T10:34:00.629Z,18.85
2018-04-26T10:35:15.612Z,18.83
2018-04-26T10:36:30.642Z,18.77
2018-04-26T10:37:45.984Z,18.73
2018-04-26T10:39:01.058Z,18.69
2018-04-26T10:40:15.640Z,18.64
2018-04-26T10:41:30.285Z,18.56
2018-04-26T10:42:44.854Z,18.43
2018-04-26T10:43:59.623Z,18.31
2018-04-26T10:45:15.167Z,18.26
2018-04-26T10:46:30.138Z,18.24
2018-04-26T10:47:45.463Z,18.22
2018-04-26T10:49:00.342Z,18.21
2018-04-26T10:50:14.935Z,18.18
2018-04-26T10:51:29.703Z,18.13
2018-04-26T10:52:44.988Z,18.02
2018-04-26T10:54:00.033Z,17.98
2018-04-26T10:55:15.027Z,17.99
2018-04-26T10:56:30.104Z,17.99
2018-04-26T10:57:44.734Z,17.92
2018-04-26T10:58:59.684Z,17.91
2018-04-26T11:00:15.911Z,17.94
2018-04-26T11:01:31.387Z,18.01
2018-04-26T11:02:46.694Z,18.05
2018-04-26T11:04:02.056Z,18.1
2018-04-26T11:05:32.959Z,18.06
2018-04-26T11:06:47.647Z,18.03
2018-04-26T11:08:02.361Z,17.94
2018-04-26T11:09:17.337Z,17.83
2018-04-26T11:10:32.359Z,17.74
2018-04-26T11:11:45.983Z,17.64
2018-04-26T11:13:01.286Z,17.57
2018-04-26T11:14:16.842Z,17.48
2018-04-26T11:15:31.812Z,17.43
2018-04-26T11:16:46.958Z,17.4
2018-04-26T11:18:02.132Z,17.36
2018-04-26T11:19:17.070Z,17.3
2018-04-26T11:20:37.148Z,17.25
2018-04-26T11:21:51.897Z,17.26
2018-04-26T11:23:07.064Z,17.29
2018-04-26T11:24:21.546Z,17.31
2018-04-26T11:25:37.099Z,17.34
2018-04-26T11:26:52.174Z,17.41
2018-04-26T11:28:07.468Z,17.45
2018-04-26T11:29:22.854Z,17.53
2018-04-26T11:30:38.756Z,17.55
2018-04-26T11:31:53.856Z,17.53
2018-04-26T11:33:09.580Z,17.49
2018-04-26T11:34:24.337Z,17.53
2018-04-26T11:35:39.026Z,17.53
2018-04-26T11:36:54.500Z,17.52
2018-04-26T11:38:10.340Z,17.54
2018-04-26T11:39:25.031Z,17.52
2018-04-26T11:40:39.724Z,17.51
2018-04-26T11:41:54.367Z,17.52
2018-04-26T11:43:09.704Z,17.55
2018-04-26T11:44:25.006Z,17.57
2018-04-26T11:45:38.957Z,17.66
2018-04-26T11:46:54.117Z,17.71
2018-04-26T11:48:08.554Z,17.78
2018-04-26T11:49:23.810Z,17.78
2018-04-26T11:50:39.678Z,17.86
2018-04-26T11:51:54.840Z,17.94
2018-04-26T11:53:09.945Z,18.02
2018-04-26T11:54:24.397Z,18.14
2018-04-26T11:55:39.611Z,18.18
2018-04-26T11:56:55.102Z,18.22
2018-04-26T11:58:12.041Z,18.31
2018-04-26T11:59:27.748Z,18.37
2018-04-26T12:00:43.762Z,18.44
2018-04-26T12:01:58.967Z,18.47
2018-04-26T12:03:14.507Z,18.47
2018-04-26T12:04:29.881Z,18.43
2018-04-26T12:05:44.584Z,18.36
2018-04-26T12:06:59.715Z,18.34
2018-04-26T12:08:14.895Z,18.3
2018-04-26T12:09:30.153Z,18.25
2018-04-26T12:10:45.171Z,18.2
2018-04-26T12:12:00.172Z,18.19
2018-04-26T12:13:16.410Z,18.16
2018-04-26T12:14:31.265Z,18.12
2018-04-26T12:15:48.228Z,18.09
2018-04-26T12:17:03.253Z,18.09
2018-04-26T12:18:19.188Z,18.13
2018-04-26T12:19:34.020Z,18.17
2018-04-26T12:20:49.178Z,18.21
2018-04-26T12:22:03.592Z,18.18
2018-04-26T12:23:18.357Z,18.15
2018-04-26T12:24:33.630Z,18.15
2018-04-26T12:25:48.942Z,18.17
2018-04-26T12:27:04.284Z,18.19
2018-04-26T12:28:19.825Z,18.22
2018-04-26T12:29:35.065Z,18.25
2018-04-26T12:30:50.158Z,18.23
2018-04-26T12:32:05.068Z,18.23
2018-04-26T12:33:19.719Z,18.24
2018-04-26T12:34:34.301Z,18.28
2018-04-26T12:35:49.023Z,18.33
2018-04-26T12:37:04.215Z,18.36
2018-04-26T12:38:20.022Z,18.34
2018-04-26T12:39:35.009Z,18.3
2018-04-26T12:40:49.919Z,18.22
2018-04-26T12:42:04.847Z,18.15
2018-04-26T12:43:21.863Z,18.1
2018-04-26T12:44:37.417Z,18.06
2018-04-26T12:45:53.990Z,18.01
2018-04-26T12:47:08.351Z,17.96
2018-04-26T12:48:23.901Z,17.94
2018-04-26T12:49:40.276Z,17.9
2018-04-26T12:50:55.938Z,17.87
2018-04-26T12:52:10.695Z,17.83
2018-04-26T12:53:26.341Z,17.79
2018-04-26T12:54:41.154Z,17.73
2018-04-26T12:55:56.033Z,17.67
2018-04-26T12:57:10.844Z,17.61
2018-04-26T12:58:26.004Z,17.56
2018-04-26T12:59:41.698Z,17.59
2018-04-26T13:00:57.508Z,17.6
2018-04-26T13:02:12.452Z,17.61
2018-04-26T13:03:27.233Z,17.59
2018-04-26T13:04:42.931Z,17.57
2018-04-26T13:05:57.893Z,17.54
2018-04-26T13:07:12.937Z,17.5
2018-04-26T13:08:27.866Z,17.5
2018-04-26T13:09:42.888Z,17.53
2018-04-26T13:10:57.425Z,17.55
2018-04-26T13:12:13.060Z,17.58
2018-04-26T13:13:29.035Z,17.66
2018-04-26T13:14:44.299Z,17.69
2018-04-26T13:15:59.584Z,17.74
2018-04-26T13:17:14.656Z,17.78
2018-04-26T13:18:30.724Z,17.84
2018-04-26T13:19:46.451Z,17.88
2018-04-26T13:21:01.774Z,17.86
2018-04-26T13:22:16.822Z,17.88
2018-04-26T13:23:32.169Z,17.85
2018-04-26T13:24:46.812Z,17.83
2018-04-26T13:26:01.974Z,17.79
2018-04-26T13:27:16.875Z,17.77
2018-04-26T13:28:31.969Z,17.71
2018-04-26T13:29:47.202Z,17.66
2018-04-26T13:31:02.670Z,17.61
2018-04-26T13:32:16.788Z,17.56
2018-04-26T13:33:32.474Z,17.51
2018-04-26T13:34:47.970Z,17.47
2018-04-26T13:36:03.351Z,17.44
2018-04-26T13:37:17.985Z,17.43
2018-04-26T13:38:32.961Z,17.41
2018-04-26T13:39:48.492Z,17.44
2018-04-26T13:41:03.436Z,17.51
2018-04-26T13:42:17.831Z,17.53
2018-04-26T13:43:33.121Z,17.59
2018-04-26T13:44:47.804Z,17.73
2018-04-26T13:46:02.853Z,17.85
2018-04-26T13:47:17.824Z,17.93
2018-04-26T13:48:33.364Z,18.06
2018-04-26T13:49:48.552Z,18.15
2018-04-26T13:51:03.498Z,18.29
2018-04-26T13:52:18.215Z,18.36
2018-04-26T13:53:33.239Z,18.4
2018-04-26T13:54:48.488Z,18.45
2018-04-26T13:56:03.200Z,18.46
2018-04-26T13:57:18.284Z,18.44
2018-04-26T13:58:34.410Z,18.45
2018-04-26T13:59:49.569Z,18.46
2018-04-26T14:01:05.168Z,18.47
2018-04-26T14:02:20.146Z,18.44
2018-04-26T14:03:34.643Z,18.38
2018-04-26T14:04:49.501Z,18.37
2018-04-26T14:06:04.594Z,18.34
2018-04-26T14:07:21.082Z,18.27
2018-04-26T14:08:36.433Z,18.25
2018-04-26T14:09:52.162Z,18.21
2018-04-26T14:11:18.365Z,18.18
2018-04-26T14:12:32.554Z,18.19
2018-04-26T14:13:48.015Z,18.26
2018-04-26T14:15:03.332Z,18.34
2018-04-26T14:16:18.784Z,18.4
2018-04-26T14:17:34.250Z,18.5
2018-04-26T14:18:49.715Z,18.58
2018-04-26T14:20:04.615Z,18.65
2018-04-26T14:21:19.664Z,18.69
2018-04-26T14:22:34.341Z,18.69
2018-04-26T14:23:50.098Z,18.68
2018-04-26T14:25:04.717Z,18.64
2018-04-26T14:26:20.807Z,18.63
2018-04-26T14:27:35.592Z,18.61
2018-04-26T14:28:50.646Z,18.6
2018-04-26T14:30:05.432Z,18.67
2018-04-26T14:31:22.630Z,18.7
2018-04-26T14:32:38.886Z,18.71
2018-04-26T14:33:53.906Z,18.68
2018-04-26T14:35:09.200Z,18.63
2018-04-26T14:36:23.828Z,18.58
2018-04-26T14:37:38.518Z,18.53
2018-04-26T14:38:53.188Z,18.47
2018-04-26T14:40:08.200Z,18.47
2018-04-26T14:41:23.228Z,18.45
2018-04-26T14:42:38.182Z,18.46
2018-04-26T14:43:53.551Z,18.45
2018-04-26T14:45:08.897Z,18.45
2018-04-26T14:46:40.634Z,18.45
2018-04-26T14:47:55.970Z,18.48
2018-04-26T14:49:11.240Z,18.48
2018-04-26T14:50:26.099Z,18.5
2018-04-26T14:51:41.064Z,18.48
2018-04-26T14:53:25.223Z,18.47
2018-04-26T14:55:04.405Z,18.59
2018-04-26T14:56:29.393Z,18.63
2018-04-26T14:57:44.176Z,18.72
2018-04-26T14:59:09.276Z,18.73
2018-04-26T15:00:24.077Z,18.76
2018-04-26T15:01:49.402Z,18.77
2018-04-26T15:04:07.514Z,18.73
2018-04-26T15:05:44.371Z,18.75
2018-04-26T15:07:10.946Z,18.71
2018-04-26T15:08:26.008Z,18.72
2018-04-26T15:09:41.116Z,18.75
2018-04-26T15:10:55.176Z,18.8
2018-04-26T15:12:10.770Z,18.92
2018-04-26T15:13:25.712Z,19
2018-04-26T15:14:40.833Z,19.13
2018-04-26T15:15:56.130Z,19.19
2018-04-26T15:17:27.253Z,19.21
2018-04-26T15:18:43.185Z,19.22
2018-04-26T15:19:59.403Z,19.22
2018-04-26T15:21:14.375Z,19.18
2018-04-26T15:22:29.327Z,19.14
2018-04-26T15:23:59.414Z,19.15
2018-04-26T15:25:42.133Z,19.2
2018-04-26T15:26:56.924Z,19.25
2018-04-26T15:28:11.872Z,19.27
2018-04-26T15:29:27.021Z,19.3
2018-04-26T15:30:43.014Z,19.33
2018-04-26T15:31:58.005Z,19.34
2018-04-26T15:33:13.137Z,19.33
2018-04-26T15:34:28.881Z,19.33
2018-04-26T15:35:43.752Z,19.34
2018-04-26T15:36:58.278Z,19.36
2018-04-26T15:38:13.289Z,19.37
2018-04-26T15:39:28.098Z,19.36
2018-04-26T15:40:42.821Z,19.34
2018-04-26T15:41:58.277Z,19.34
2018-04-26T15:45:14.879Z,19.3
2018-04-26T15:46:29.098Z,19.3
2018-04-26T15:47:44.516Z,19.31
2018-04-26T15:48:59.346Z,19.33
2018-04-26T15:50:14.649Z,19.34
2018-04-26T15:51:30.076Z,19.35
2018-04-26T15:52:46.865Z,19.34
2018-04-26T15:54:07.545Z,19.24
2018-04-26T15:55:43.452Z,19.08
2018-04-26T15:56:58.016Z,18.91
2018-04-26T15:58:12.559Z,18.79
2018-04-26T16:00:01.345Z,18.71
2018-04-26T16:01:15.433Z,18.62
2018-04-26T16:02:29.994Z,18.61
2018-04-26T16:03:54.970Z,18.59
2018-04-26T16:05:11.119Z,18.54
2018-04-26T16:06:56.126Z,18.52
2018-04-26T16:08:10.960Z,18.49
2018-04-26T16:09:26.837Z,18.48
2018-04-26T16:10:42.385Z,18.43
2018-04-26T16:11:57.096Z,18.45
2018-04-26T16:13:32.955Z,18.47
2018-04-26T16:14:59.357Z,18.46
2018-04-26T16:16:14.885Z,18.41
2018-04-26T16:17:30.157Z,18.36
2018-04-26T16:18:45.056Z,18.32
2018-04-26T16:20:00.951Z,18.24
2018-04-26T16:21:16.653Z,18.18
2018-04-26T16:22:32.213Z,18.13
2018-04-26T16:23:47.131Z,18.09
2018-04-26T16:25:16.863Z,18.09
2018-04-26T16:26:32.928Z,18.05
2018-04-26T16:28:05.027Z,18